Time;durP1;ratioP1;P1;durP2;ratioP2;P2;SDS_P1;SDS_P2;PMS_P1;PMS_P2;Temp;Humidity;BMP_temperature;BMP_pressure;BME280_temperature;BME280_humidity;BME280_pressure;Samples;Min_cycle;Max_cycle;Signal;HPM_P1;HPM_P2
2022/04/19 00:01:36;;;;;;;83.00;45.50;;;1.40;99.90;;;;;;5086824;28;20098;-78
2022/04/19 00:04:03;;;;;;;77.03;42.25;;;1.30;99.90;;;;;;5080865;28;20040;-77
2022/04/19 00:06:31;;;;;;;75.43;41.60;;;1.30;99.90;;;;;;5064596;28;20041;-77
2022/04/19 00:08:59;;;;;;;75.80;43.15;;;1.30;99.90;;;;;;5064270;28;20075;-78
2022/04/19 00:11:28;;;;;;;81.90;42.42;;;1.30;99.90;;;;;;5080526;28;20032;-78
2022/04/19 00:13:56;;;;;;;80.13;43.83;;;1.20;99.90;;;;;;5069977;28;20070;-77
2022/04/19 00:16:23;;;;;;;82.88;44.47;;;1.20;99.90;;;;;;5091824;28;20040;-77
2022/04/19 00:18:51;;;;;;;86.22;43.92;;;1.20;99.90;;;;;;5094510;28;20044;-78
2022/04/19 00:21:19;;;;;;;77.90;43.90;;;1.20;99.90;;;;;;5078019;28;20059;-76
2022/04/19 00:23:47;;;;;;;87.18;44.97;;;1.10;99.90;;;;;;5058621;28;20094;-76
2022/04/19 00:26:15;;;;;;;83.13;44.20;;;1.00;99.90;;;;;;5059858;28;20496;-77
2022/04/19 00:28:44;;;;;;;80.30;40.20;;;1.00;99.90;;;;;;5060152;28;20048;-77
2022/04/19 00:31:12;;;;;;;77.95;41.55;;;1.10;1.00;;;;;;5051432;28;20116;-75
2022/04/19 00:33:44;;;;;;;60.45;31.83;;;1.10;1.00;;;;;;5058038;28;20110;-75
2022/04/19 00:36:13;;;;;;;55.15;29.70;;;1.00;1.00;;;;;;5058993;28;20045;-76
2022/04/19 00:38:41;;;;;;;38.15;21.77;;;1.00;1.00;;;;;;5077713;28;20106;-76
2022/04/19 00:41:08;;;;;;;47.65;27.38;;;1.00;1.00;;;;;;5060527;28;20076;-76
2022/04/19 00:43:36;;;;;;;55.30;30.13;;;1.00;1.00;;;;;;5059318;28;20048;-76
2022/04/19 00:46:05;;;;;;;49.55;28.98;;;1.00;1.00;;;;;;5039357;28;20044;-76
2022/04/19 00:48:32;;;;;;;48.38;28.35;;;0.90;1.00;;;;;;5054473;28;20098;-78
2022/04/19 00:51:01;;;;;;;49.42;28.77;;;0.90;1.00;;;;;;5078574;28;20063;-78
2022/04/19 00:53:29;;;;;;;51.63;29.95;;;0.90;1.00;;;;;;5061079;28;20056;-76
2022/04/19 00:55:59;;;;;;;51.65;30.17;;;0.90;1.00;;;;;;5055848;28;20064;-77
2022/04/19 00:58:28;;;;;;;55.60;32.60;;;0.80;1.00;;;;;;5040054;28;20060;-77
2022/04/19 01:00:56;;;;;;;58.67;34.83;;;0.70;1.00;;;;;;5058098;28;20040;-75
2022/04/19 01:03:26;;;;;;;56.55;34.50;;;0.70;1.00;;;;;;5058289;28;20109;-77
2022/04/19 01:05:57;;;;;;;52.88;33.00;;;0.60;1.00;;;;;;5058648;28;20060;-77
2022/04/19 01:08:25;;;;;;;54.88;33.75;;;0.60;1.00;;;;;;5086226;28;20044;-77
2022/04/19 01:13:17;;;;;;;59.63;34.20;;;0.60;1.00;;;;;;5073471;28;20074;-76
2022/04/19 01:14:06;;;;;;;56.13;33.58;;;0.50;1.00;;;;;;5093774;28;20047;-77
2022/04/19 01:16:37;;;;;;;52.08;31.08;;;0.50;1.00;;;;;;5080376;28;20040;-76
2022/04/19 01:19:14;;;;;;;48.92;30.20;;;0.50;1.00;;;;;;5079080;28;20048;-76
2022/04/19 01:21:48;;;;;;;50.67;29.73;;;0.40;1.00;;;;;;5068708;28;20102;-76
2022/04/19 01:24:22;;;;;;;49.10;30.67;;;0.50;1.00;;;;;;5070024;28;20045;-76
2022/04/19 01:26:54;;;;;;;49.05;29.55;;;0.50;1.00;;;;;;5078261;28;20044;-77
2022/04/19 01:29:21;;;;;;;48.63;29.77;;;0.40;1.00;;;;;;5081020;28;20078;-77
2022/04/19 01:31:52;;;;;;;58.22;31.25;;;0.40;1.00;;;;;;5077673;28;20039;-77
2022/04/19 01:34:22;;;;;;;54.03;31.92;;;0.40;1.00;;;;;;5058983;28;20068;-78
2022/04/19 01:36:54;;;;;;;52.88;30.85;;;0.40;1.00;;;;;;5060667;28;20048;-78
2022/04/19 01:40:16;;;;;;;48.85;30.42;;;0.30;1.00;;;;;;5061482;28;20048;-77
2022/04/19 01:42:13;;;;;;;42.92;25.90;;;0.30;1.00;;;;;;5061658;28;20052;-76
2022/04/19 01:44:47;;;;;;;42.90;26.35;;;0.30;26.10;;;;;;5062072;28;20052;-77
2022/04/19 01:47:16;;;;;;;40.85;26.02;;;0.20;1.00;;;;;;5061881;28;20044;-77
2022/04/19 01:49:48;;;;;;;42.42;26.15;;;0.20;1.00;;;;;;5060407;28;20052;-77
2022/04/19 01:52:17;;;;;;;44.67;27.20;;;0.10;38.10;;;;;;5078358;28;20036;-77
2022/04/19 01:54:46;;;;;;;41.42;25.17;;;0.10;91.60;;;;;;5064462;28;20143;-76
2022/04/19 01:57:21;;;;;;;;;;;0.10;99.90;;;;;;5084907;28;20487;-76
2022/04/19 01:59:51;;;;;;;44.33;27.17;;;0.10;99.90;;;;;;5090074;28;20011;-76
2022/04/19 02:02:38;;;;;;;45.40;28.25;;;0.10;99.90;;;;;;5097732;28;20058;-76
2022/04/19 02:05:06;;;;;;;46.20;28.08;;;0.10;99.90;;;;;;5079835;28;20101;-76
2022/04/19 02:07:39;;;;;;;45.45;27.55;;;0.00;92.70;;;;;;5081434;28;20036;-76
2022/04/19 02:10:09;;;;;;;44.28;25.77;;;0.00;99.90;;;;;;5081097;28;20052;-76
2022/04/19 02:12:38;;;;;;;41.30;24.67;;;0.10;99.90;;;;;;5076755;28;20048;-76
2022/04/19 02:15:29;;;;;;;44.08;26.30;;;0.10;99.90;;;;;;5076491;28;20135;-77
2022/04/19 02:18:01;;;;;;;43.08;26.83;;;0.10;99.90;;;;;;5068772;28;20453;-77
2022/04/19 02:20:28;;;;;;;46.38;27.13;;;0.00;99.90;;;;;;5064436;28;20055;-76
2022/04/19 02:22:57;;;;;;;43.78;25.52;;;0.00;99.90;;;;;;5066203;28;20067;-77
2022/04/19 02:25:26;;;;;;;44.75;24.88;;;0.00;99.90;;;;;;5085545;28;20053;-77
2022/04/19 02:27:55;;;;;;;49.38;26.80;;;0.00;99.90;;;;;;5082172;28;20051;-78
2022/04/19 02:30:27;;;;;;;48.28;28.20;;;-0.10;99.90;;;;;;5081138;28;20047;-77
2022/04/19 02:33:04;;;;;;;50.47;27.67;;;0.00;99.90;;;;;;5065419;28;20057;-76
2022/04/19 02:35:36;;;;;;;48.80;27.27;;;0.00;80.30;;;;;;5070053;28;20066;-77
2022/04/19 02:38:07;;;;;;;47.15;27.70;;;-0.10;99.90;;;;;;5084277;28;20135;-77
2022/04/19 02:40:44;;;;;;;49.60;27.92;;;-0.30;99.90;;;;;;5083240;28;20135;-76
2022/04/19 02:43:14;;;;;;;59.20;32.72;;;-0.30;1.00;;;;;;5082683;28;20044;-76
2022/04/19 02:45:43;;;;;;;55.60;30.48;;;-0.30;1.00;;;;;;5084177;28;20525;-76
2022/04/19 02:48:13;;;;;;;52.50;30.15;;;-0.40;1.00;;;;;;5083800;28;20036;-76
2022/04/19 02:50:46;;;;;;;53.72;29.25;;;-0.30;1.00;;;;;;5082163;28;20383;-76
2022/04/19 02:53:15;;;;;;;52.67;29.77;;;-0.20;1.00;;;;;;5081724;28;20111;-77
2022/04/19 02:55:43;;;;;;;54.55;30.63;;;-0.10;1.00;;;;;;5082026;28;20477;-76
2022/04/19 02:58:10;;;;;;;51.42;30.17;;;-0.10;1.00;;;;;;5072546;28;20043;-77
2022/04/19 03:00:39;;;;;;;55.08;29.48;;;-0.20;1.00;;;;;;5077621;28;20094;-77
2022/04/19 03:03:09;;;;;;;58.78;32.03;;;-0.20;1.00;;;;;;5082960;28;20067;-76
2022/04/19 03:05:40;;;;;;;62.33;32.63;;;-0.20;99.90;;;;;;5083524;28;20099;-76
2022/04/19 03:08:08;;;;;;;59.30;32.25;;;-0.20;99.90;;;;;;5083780;28;20036;-76
2022/04/19 03:10:38;;;;;;;68.15;35.70;;;-0.20;99.90;;;;;;5083783;28;20052;-75
2022/04/19 03:13:06;;;;;;;66.43;36.10;;;-0.20;99.90;;;;;;5100329;28;20078;-76
2022/04/19 03:15:37;;;;;;;61.20;33.30;;;-0.20;99.90;;;;;;5082234;28;20075;-78
2022/04/19 03:18:06;;;;;;;64.80;35.70;;;-0.30;2.20;;;;;;5081896;28;20044;-75
2022/04/19 03:20:35;;;;;;;62.20;34.53;;;-0.40;99.90;;;;;;5081320;28;20411;-76
2022/04/19 03:28:47;;;;;;;65.57;35.45;;;-0.40;99.90;;;;;;5081745;28;20048;-76
2022/04/19 03:31:17;;;;;;;60.78;34.55;;;-0.50;99.90;;;;;;5080330;28;20580;-77
2022/04/19 03:33:49;;;;;;;58.60;33.70;;;-0.50;99.90;;;;;;5080528;28;20507;-75
2022/04/19 03:36:20;;;;;;;59.15;37.10;;;-0.50;99.90;;;;;;5099478;28;20056;-75
2022/04/19 03:38:49;;;;;;;62.10;36.35;;;-0.50;99.90;;;;;;5080783;28;20040;-75
2022/04/19 03:41:19;;;;;;;61.28;36.25;;;-0.50;99.90;;;;;;5080603;28;20067;-77
2022/04/19 03:43:46;;;;;;;63.85;36.90;;;-0.50;1.00;;;;;;5081338;28;20466;-76
2022/04/19 03:46:14;;;;;;;59.38;37.28;;;-0.40;99.90;;;;;;5081573;28;20055;-76
2022/04/19 03:48:42;;;;;;;65.25;39.35;;;-0.40;99.90;;;;;;5082037;28;20066;-77
2022/04/19 03:51:09;;;;;;;70.60;40.63;;;-0.40;99.90;;;;;;5081331;28;20147;-77
2022/04/19 03:53:37;;;;;;;64.53;38.60;;;-0.50;99.90;;;;;;5080845;28;20046;-77
2022/04/19 03:56:06;;;;;;;67.50;36.53;;;-0.50;99.90;;;;;;5079227;28;20501;-77
2022/04/19 03:58:40;;;;;;;63.20;36.50;;;-0.30;99.90;;;;;;5080353;28;20051;-77
2022/04/19 04:01:09;;;;;;;66.65;38.53;;;-0.40;54.60;;;;;;5088577;28;20113;-77
2022/04/19 04:03:37;;;;;;;63.25;38.30;;;-0.40;36.90;;;;;;5074794;28;20074;-78
2022/04/19 04:06:05;;;;;;;59.83;36.85;;;-0.40;1.00;;;;;;5073165;28;20419;-78
2022/04/19 04:08:33;;;;;;;57.00;36.33;;;-0.50;19.20;;;;;;5087685;28;20033;-77
2022/04/19 04:11:01;;;;;;;58.30;37.60;;;-0.50;52.90;;;;;;5060855;28;21554;-76
2022/04/19 04:13:35;;;;;;;64.85;37.63;;;-0.40;99.90;;;;;;5060305;28;20040;-76
2022/04/19 04:16:02;;;;;;;64.05;38.05;;;-0.30;1.00;;;;;;5077196;28;20147;-76
2022/04/19 04:18:31;;;;;;;298.60;67.35;;;-0.30;1.00;;;;;;5059589;28;20040;-77
2022/04/19 04:21:00;;;;;;;64.55;38.50;;;-0.30;1.00;;;;;;5067806;28;20044;-77
2022/04/19 04:23:30;;;;;;;67.53;39.05;;;-0.10;1.00;;;;;;5070758;28;20074;-76
2022/04/19 04:26:06;;;;;;;67.18;37.72;;;0.10;1.00;;;;;;5066983;28;20070;-78
2022/04/19 04:28:37;;;;;;;69.72;38.55;;;0.30;1.00;;;;;;5078090;28;20012;-79
2022/04/19 04:31:06;;;;;;;80.93;38.58;;;0.40;99.90;;;;;;5096539;28;20044;-78
2022/04/19 04:33:33;;;;;;;66.88;36.80;;;0.40;99.90;;;;;;5077210;28;20067;-77
2022/04/19 04:36:05;;;;;;;66.07;35.58;;;0.40;99.90;;;;;;5060664;28;20406;-76
2022/04/19 04:38:34;;;;;;;64.32;35.30;;;0.50;99.90;;;;;;5059599;28;20112;-77
2022/04/19 04:41:05;;;;;;;61.22;34.20;;;0.60;99.90;;;;;;5059355;28;20504;-76
2022/04/19 04:43:32;;;;;;;62.08;34.47;;;0.70;78.00;;;;;;5059169;28;20554;-77
2022/04/19 04:51:32;;;;;;;70.47;37.42;;;0.70;16.80;;;;;;5059570;28;20159;-77
2022/04/19 04:54:00;;;;;;;66.25;36.13;;;0.70;1.00;;;;;;5059194;28;20056;-79
2022/04/19 04:56:29;;;;;;;83.15;41.47;;;0.70;1.00;;;;;;5056428;28;20528;-79
2022/04/19 04:58:57;;;;;;;145.40;60.08;;;0.70;1.00;;;;;;5056973;28;20410;-79
2022/04/19 05:01:28;;;;;;;214.05;80.60;;;0.60;1.00;;;;;;5058053;28;20056;-79
2022/04/19 05:03:56;;;;;;;156.77;64.65;;;0.70;1.00;;;;;;5057193;28;20074;-79
2022/04/19 05:06:25;;;;;;;106.88;48.28;;;0.60;8.80;;;;;;5056840;28;20094;-80
2022/04/19 05:08:53;;;;;;;83.03;43.70;;;0.70;1.00;;;;;;5057997;28;20037;-81
2022/04/19 05:11:21;;;;;;;83.72;41.20;;;0.80;1.00;;;;;;5057963;28;20097;-79
2022/04/19 05:13:48;;;;;;;83.05;41.97;;;0.90;1.00;;;;;;5057010;28;20110;-80
2022/04/19 05:16:17;;;;;;;94.43;41.67;;;1.00;1.00;;;;;;5056966;28;20049;-79
2022/04/19 05:18:46;;;;;;;83.88;43.42;;;1.10;1.00;;;;;;5056713;28;20051;-79
2022/04/19 05:21:14;;;;;;;85.20;45.45;;;1.10;1.00;;;;;;5057333;28;20092;-81
2022/04/19 05:23:42;;;;;;;77.43;40.90;;;1.30;1.00;;;;;;5056637;28;20109;-80
2022/04/19 05:26:12;;;;;;;72.53;39.60;;;1.60;1.00;;;;;;5057605;28;20067;-80
2022/04/19 05:28:40;;;;;;;74.90;42.65;;;1.90;1.00;;;;;;5056842;28;20036;-79
2022/04/19 05:31:09;;;;;;;81.20;44.92;;;2.20;1.00;;;;;;5058101;28;20053;-80
2022/04/19 05:33:36;;;;;;;84.15;44.28;;;2.40;1.00;;;;;;5057937;28;20118;-80
2022/04/19 05:36:06;;;;;;;79.25;42.55;;;2.60;1.00;;;;;;5058402;28;20060;-79
2022/04/19 05:38:34;;;;;;;79.25;43.83;;;2.70;1.00;;;;;;5058217;28;20135;-79
2022/04/19 05:41:02;;;;;;;82.22;45.20;;;3.00;1.00;;;;;;5079287;28;20101;-81
2022/04/19 05:43:30;;;;;;;84.20;46.20;;;3.30;99.90;;;;;;5060375;28;20138;-81
2022/04/19 05:45:58;;;;;;;86.32;47.67;;;3.60;99.90;;;;;;5067157;28;20040;-81
2022/04/19 05:48:28;;;;;;;82.72;45.67;;;3.90;99.90;;;;;;5082735;28;20055;-81
2022/04/19 05:50:56;;;;;;;78.68;45.38;;;4.10;99.90;;;;;;5083696;28;20112;-81
2022/04/19 05:53:25;;;;;;;77.32;43.75;;;4.20;99.90;;;;;;5084006;28;20024;-81
2022/04/19 05:55:54;;;;;;;62.92;35.50;;;4.70;99.90;;;;;;5107746;28;20058;-80
2022/04/19 05:58:21;;;;;;;61.53;36.20;;;4.90;99.90;;;;;;5089017;28;20059;-80
2022/04/19 06:00:50;;;;;;;54.90;33.97;;;5.30;99.90;;;;;;5073212;28;20144;-80
2022/04/19 06:06:06;;;;;;;48.80;31.88;;;5.80;99.90;;;;;;5076577;28;20518;-80
2022/04/19 06:08:38;;;;;;;48.97;33.10;;;6.20;99.90;;;;;;5077002;28;20066;-79
2022/04/19 06:11:12;;;;;;;63.08;37.08;;;6.50;99.90;;;;;;5086750;28;20060;-80
2022/04/19 06:13:42;;;;;;;62.45;36.88;;;6.60;99.90;;;;;;5083574;28;20059;-80
2022/04/19 06:16:10;;;;;;;58.55;35.90;;;6.80;99.90;;;;;;5079298;28;20076;-81
2022/04/19 06:18:40;;;;;;;58.40;35.42;;;7.10;99.90;;;;;;5077137;28;20047;-81
2022/04/19 06:21:29;;;;;;;52.50;32.70;;;7.10;99.90;;;;;;5076791;28;20131;-80
2022/04/19 06:23:58;;;;;;;50.92;31.45;;;7.10;99.90;;;;;;5095176;28;20032;-80
2022/04/19 06:26:25;;;;;;;47.90;30.10;;;7.40;99.90;;;;;;5077088;28;20144;-80
2022/04/19 06:28:59;;;;;;;50.88;30.75;;;7.70;99.90;;;;;;5077000;28;20040;-81
2022/04/19 06:31:43;;;;;;;50.22;32.88;;;7.90;99.90;;;;;;5075894;28;20079;-81
2022/04/19 06:34:23;;;;;;;49.70;31.35;;;8.20;1.00;;;;;;5078026;28;20051;-81
2022/04/19 06:37:02;;;;;;;56.72;31.67;;;7.90;1.00;;;;;;5076212;28;20109;-80
2022/04/19 06:39:32;;;;;;;51.47;30.83;;;7.60;1.00;;;;;;5079029;28;20036;-81
2022/04/19 06:42:00;;;;;;;52.30;30.63;;;7.60;1.00;;;;;;5076604;28;20080;-82
2022/04/19 06:44:35;;;;;;;44.67;29.30;;;7.80;1.00;;;;;;5075321;28;20185;-81
2022/04/19 06:47:11;;;;;;;51.75;30.48;;;8.10;1.00;;;;;;5076045;28;20048;-82
2022/04/19 06:49:40;;;;;;;46.75;27.77;;;8.60;1.00;;;;;;5075881;28;20526;-81
2022/04/19 06:52:08;;;;;;;47.47;28.08;;;8.60;1.00;;;;;;5077022;28;20044;-81
2022/04/19 06:54:38;;;;;;;44.63;25.73;;;8.60;1.00;;;;;;5093634;28;20075;-82
2022/04/19 06:57:05;;;;;;;50.67;28.13;;;8.60;1.00;;;;;;5067936;28;20147;-80
2022/04/19 06:59:33;;;;;;;44.85;28.33;;;8.90;99.90;;;;;;5063623;28;20037;-80
2022/04/19 07:02:01;;;;;;;49.25;26.63;;;9.10;1.00;;;;;;5070172;28;20063;-81
2022/04/19 07:04:31;;;;;;;36.47;22.75;;;9.20;1.00;;;;;;5094175;28;20105;-79
2022/04/19 07:07:03;;;;;;;39.90;23.60;;;9.30;99.90;;;;;;5079118;28;20554;-80
2022/04/19 07:09:31;;;;;;;37.03;22.58;;;9.50;7.50;;;;;;5105031;28;20495;-80
2022/04/19 07:12:02;;;;;;;37.30;21.67;;;9.70;99.90;;;;;;5103024;28;20136;-79
2022/04/19 07:14:38;;;;;;;33.45;20.17;;;10.00;1.00;;;;;;5080153;28;20117;-79
2022/04/19 07:17:09;;;;;;;28.27;20.23;;;10.20;99.90;;;;;;5099007;28;20055;-79
2022/04/19 07:28:08;;;;;;;25.83;16.48;;;10.80;1.00;;;;;;5079336;28;20070;-78
2022/04/19 07:30:43;;;;;;;27.55;17.38;;;10.40;1.00;;;;;;5079430;28;20419;-78
2022/04/19 07:33:11;;;;;;;26.02;17.95;;;10.30;30.60;;;;;;5079020;28;20052;-77
2022/04/19 07:35:41;;;;;;;27.58;17.35;;;10.20;10.80;;;;;;5079703;28;20048;-80
2022/04/19 07:38:09;;;;;;;51.25;21.33;;;10.00;2.80;;;;;;5079668;28;20044;-78
2022/04/19 07:40:55;;;;;;;26.13;16.92;;;10.10;20.70;;;;;;5098283;28;20051;-77
2022/04/19 07:43:24;;;;;;;25.63;16.83;;;10.10;30.40;;;;;;5097691;28;20052;-78
2022/04/19 07:45:52;;;;;;;24.38;15.45;;;10.20;35.70;;;;;;5097800;28;20044;-78
2022/04/19 07:48:20;;;;;;;30.38;16.40;;;10.40;64.70;;;;;;5097581;28;20044;-77
2022/04/19 07:50:48;;;;;;;27.77;15.68;;;10.50;55.70;;;;;;5096679;28;20055;-77
2022/04/19 07:53:18;;;;;;;26.30;16.02;;;10.60;61.80;;;;;;5078811;28;20048;-78
2022/04/19 07:55:48;;;;;;;25.08;15.63;;;10.80;64.30;;;;;;5068194;28;20044;-77
2022/04/19 07:58:18;;;;;;;25.17;14.98;;;10.90;72.70;;;;;;5057644;28;20064;-77
2022/04/19 08:00:47;;;;;;;26.75;15.20;;;11.00;69.70;;;;;;5096234;28;20036;-79
2022/04/19 08:03:15;;;;;;;26.63;15.60;;;11.50;74.80;;;;;;5073720;28;20147;-78
2022/04/19 08:05:42;;;;;;;25.42;15.23;;;11.90;67.20;;;;;;5066354;28;20068;-79
2022/04/19 08:08:10;;;;;;;21.52;13.23;;;12.20;84.70;;;;;;5071917;28;20048;-80
2022/04/19 08:10:38;;;;;;;26.45;13.65;;;12.60;65.90;;;;;;5070149;28;20139;-79
2022/04/19 08:13:09;;;;;;;22.33;14.40;;;12.30;79.40;;;;;;5086109;28;20060;-80
2022/04/19 08:15:36;;;;;;;27.75;14.93;;;12.10;91.80;;;;;;5085848;28;20055;-78
2022/04/19 08:18:05;;;;;;;26.85;14.40;;;12.10;91.10;;;;;;5086535;28;20078;-80
2022/04/19 08:20:33;;;;;;;19.40;11.40;;;12.20;91.80;;;;;;5081410;28;20036;-79
2022/04/19 08:23:01;;;;;;;20.38;12.38;;;12.40;90.90;;;;;;5071983;28;20047;-79
2022/04/19 08:25:28;;;;;;;18.25;10.25;;;12.70;90.00;;;;;;5066361;28;20094;-80
2022/04/19 08:27:56;;;;;;;10.35;6.28;;;12.90;87.00;;;;;;5059802;28;20041;-79
2022/04/19 08:30:24;;;;;;;13.88;8.25;;;12.70;88.30;;;;;;5059698;28;20090;-80
2022/04/19 08:32:52;;;;;;;16.95;8.93;;;12.80;94.00;;;;;;5058692;28;20048;-78
2022/04/19 08:35:21;;;;;;;11.23;6.63;;;13.10;93.40;;;;;;5082509;28;20047;-77
2022/04/19 08:37:49;;;;;;;27.33;15.27;;;13.30;91.60;;;;;;5079441;28;20131;-76
2022/04/19 08:40:19;;;;;;;12.43;7.30;;;13.60;91.60;;;;;;5062204;28;20047;-76
2022/04/19 08:42:51;;;;;;;22.02;9.93;;;13.60;89.80;;;;;;5061095;28;20380;-77
2022/04/19 08:45:20;;;;;;;14.45;7.70;;;13.40;91.00;;;;;;5077797;28;20051;-76
2022/04/19 08:47:49;;;;;;;12.95;7.25;;;13.30;90.00;;;;;;5077761;28;20063;-81
2022/04/19 08:50:18;;;;;;;16.58;8.82;;;13.50;87.80;;;;;;5074767;28;20048;-78
2022/04/19 08:57:29;;;;;;;15.95;7.55;;;13.50;87.60;;;;;;5074592;28;20040;-77
2022/04/19 08:58:21;;;;;;;13.90;8.18;;;13.90;85.70;;;;;;5074502;28;20037;-75
2022/04/19 09:00:48;;;;;;;12.50;6.57;;;14.00;84.50;;;;;;5075511;28;20101;-76
2022/04/19 09:03:16;;;;;;;9.85;6.35;;;14.20;82.60;;;;;;5074193;28;20041;-79
2022/04/19 09:05:53;;;;;;;14.05;6.03;;;14.10;78.60;;;;;;5062520;28;20469;-77
2022/04/19 09:08:22;;;;;;;9.93;6.22;;;13.60;78.00;;;;;;5054873;28;20049;-78
2022/04/19 09:10:51;;;;;;;10.98;6.25;;;13.50;77.70;;;;;;5037485;28;20052;-77
2022/04/19 09:13:23;;;;;;;13.88;6.55;;;13.20;79.10;;;;;;5055947;28;20099;-77
2022/04/19 09:15:55;;;;;;;13.30;7.88;;;13.10;79.40;;;;;;5036907;28;20073;-78
2022/04/19 09:18:29;;;;;;;15.15;6.28;;;13.30;80.50;;;;;;5054521;28;20040;-76
2022/04/19 09:20:58;;;;;;;11.55;6.97;;;13.20;78.70;;;;;;5054467;28;20037;-77
2022/04/19 09:23:29;;;;;;;10.27;5.75;;;13.30;78.90;;;;;;5055441;28;20048;-78
2022/04/19 09:25:57;;;;;;;16.92;6.63;;;13.50;77.20;;;;;;5056904;28;20067;-77
2022/04/19 09:28:26;;;;;;;14.02;6.18;;;13.70;78.00;;;;;;5056794;28;20052;-78
2022/04/19 09:30:56;;;;;;;10.18;5.32;;;14.00;76.10;;;;;;5058423;28;20045;-77
2022/04/19 09:33:25;;;;;;;11.80;5.57;;;14.20;75.80;;;;;;5057200;28;20041;-77
2022/04/19 09:35:54;;;;;;;12.98;7.10;;;14.20;74.10;;;;;;5055551;28;20127;-78
2022/04/19 09:38:36;;;;;;;9.68;5.85;;;14.40;74.50;;;;;;5036937;28;20041;-77
2022/04/19 09:41:04;;;;;;;13.35;8.68;;;14.40;72.00;;;;;;5053875;28;20074;-78
2022/04/19 09:43:33;;;;;;;11.80;7.32;;;14.70;72.10;;;;;;5053952;28;20500;-77
2022/04/19 09:46:03;;;;;;;12.07;6.65;;;14.80;69.60;;;;;;5054018;28;20056;-79
2022/04/19 09:48:33;;;;;;;12.05;6.20;;;14.80;70.40;;;;;;5019888;28;20385;-78
2022/04/19 09:51:03;;;;;;;9.75;5.97;;;15.00;69.30;;;;;;5035979;28;20051;-78
2022/04/19 09:53:32;;;;;;;9.88;6.75;;;14.60;68.30;;;;;;5063744;28;20045;-80
2022/04/19 09:56:01;;;;;;;12.02;7.28;;;14.60;69.30;;;;;;5085452;28;20135;-81
2022/04/19 09:58:29;;;;;;;9.35;6.18;;;14.60;67.70;;;;;;5083817;28;20039;-79
2022/04/19 10:00:57;;;;;;;9.25;6.07;;;14.60;67.00;;;;;;5085774;28;20040;-79
2022/04/19 10:08:54;;;;;;;8.05;4.15;;;14.50;63.70;;;;;;5093277;28;20066;-81
2022/04/19 10:11:26;;;;;;;9.02;4.30;;;14.40;62.70;;;;;;5098985;28;20062;-79
2022/04/19 10:13:55;;;;;;;14.57;4.70;;;14.60;61.50;;;;;;5088027;28;20093;-77
2022/04/19 10:16:23;;;;;;;8.80;5.20;;;14.70;60.00;;;;;;5071008;28;20139;-77
2022/04/19 10:18:50;;;;;;;10.88;5.72;;;15.00;62.20;;;;;;5083172;28;20036;-79
2022/04/19 10:21:21;;;;;;;14.05;6.28;;;14.80;63.00;;;;;;5069365;28;20048;-79
2022/04/19 10:23:48;;;;;;;11.60;6.47;;;14.70;63.80;;;;;;5096762;28;20131;-78
2022/04/19 10:26:19;;;;;;;11.82;6.03;;;15.00;63.60;;;;;;5082592;28;20052;-78
2022/04/19 10:28:49;;;;;;;9.13;6.10;;;15.20;62.80;;;;;;5097525;28;20048;-80
2022/04/19 10:31:26;;;;;;;8.30;5.72;;;15.30;62.30;;;;;;5085800;28;20068;-80
2022/04/19 10:33:54;;;;;;;8.68;5.30;;;15.30;62.20;;;;;;5064249;28;20163;-80
2022/04/19 10:36:23;;;;;;;9.85;6.13;;;15.30;62.30;;;;;;5082431;28;20043;-81
2022/04/19 10:39:22;;;;;;;12.25;8.80;;;15.50;61.50;;;;;;5084377;28;20112;-79
2022/04/19 10:41:53;;;;;;;9.15;6.55;;;15.50;62.10;;;;;;5067170;28;20044;-79
2022/04/19 10:44:35;;;;;;;8.00;5.60;;;15.40;60.30;;;;;;5077929;28;20422;-78
2022/04/19 10:47:12;;;;;;;10.73;7.57;;;15.20;60.40;;;;;;5076791;28;20071;-77
2022/04/19 10:50:05;;;;;;;8.52;6.45;;;15.00;60.00;;;;;;5077037;28;20042;-78
2022/04/19 10:52:51;;;;;;;8.05;5.40;;;15.10;61.20;;;;;;5060212;28;20065;-80
2022/04/19 10:55:32;;;;;;;11.70;5.82;;;15.10;60.80;;;;;;5093763;28;20066;-79
2022/04/19 10:58:17;;;;;;;14.55;7.85;;;15.10;61.30;;;;;;5093777;28;20040;-79
2022/04/19 11:00:56;;;;;;;9.57;5.25;;;15.30;62.10;;;;;;5084488;28;20048;-80
2022/04/19 11:03:46;;;;;;;7.78;5.00;;;15.00;61.80;;;;;;5100278;28;20047;-78
2022/04/19 11:06:34;;;;;;;9.55;5.53;;;14.90;62.20;;;;;;5086519;28;20087;-78
2022/04/19 11:09:27;;;;;;;7.25;5.00;;;14.60;63.20;;;;;;5083673;28;20090;-81
2022/04/19 11:11:58;;;;;;;8.80;5.32;;;14.30;62.90;;;;;;5040807;28;20056;-77
2022/04/19 11:14:41;;;;;;;9.15;6.40;;;14.10;62.70;;;;;;5086398;28;20503;-78
2022/04/19 11:17:42;;;;;;;10.60;4.93;;;14.30;63.80;;;;;;5083021;28;20060;-77
2022/04/19 11:20:14;;;;;;;14.75;6.00;;;14.80;61.50;;;;;;5077113;28;20032;-78
2022/04/19 11:22:51;;;;;;;7.38;4.60;;;15.20;62.70;;;;;;5076716;28;20051;-77
2022/04/19 11:25:40;;;;;;;9.65;4.30;;;15.70;61.40;;;;;;5076778;28;20037;-78
2022/04/19 11:28:31;;;;;;;8.05;3.78;;;15.70;60.60;;;;;;5076477;28;20454;-78
2022/04/19 11:31:12;;;;;;;8.23;4.38;;;15.90;59.10;;;;;;5059691;28;20574;-78
2022/04/19 11:33:41;;;;;;;7.25;3.67;;;15.70;57.90;;;;;;5076526;28;20892;-78
2022/04/19 11:36:11;;;;;;;5.07;3.15;;;15.60;58.50;;;;;;5076737;28;20480;-78
2022/04/19 11:38:43;;;;;;;4.90;3.20;;;15.60;56.10;;;;;;5077436;28;20055;-78
2022/04/19 11:46:46;;;;;;;12.40;7.97;;;16.20;57.30;;;;;;5059638;28;20139;-77
2022/04/19 11:49:35;;;;;;;9.95;6.43;;;16.10;57.20;;;;;;5069300;28;20413;-78
2022/04/19 11:52:09;;;;;;;7.60;5.60;;;16.20;56.60;;;;;;5057211;28;20041;-79
2022/04/19 11:54:36;;;;;;;11.90;7.78;;;16.30;56.50;;;;;;5057108;28;20057;-77
2022/04/19 11:57:05;;;;;;;6.38;4.18;;;16.70;56.20;;;;;;5060313;28;20067;-77
2022/04/19 11:59:35;;;;;;;7.25;4.70;;;16.80;54.30;;;;;;5058124;28;20435;-78
2022/04/19 12:02:05;;;;;;;7.13;4.10;;;16.80;53.90;;;;;;5075991;28;20066;-79
2022/04/19 12:04:34;;;;;;;6.70;4.00;;;16.40;53.70;;;;;;5074273;28;20040;-79
2022/04/19 12:07:03;;;;;;;6.65;3.90;;;16.30;53.30;;;;;;5076813;28;20119;-78
2022/04/19 12:09:31;;;;;;;5.28;3.30;;;16.30;53.30;;;;;;5075919;28;20053;-77
2022/04/19 12:11:59;;;;;;;9.75;4.18;;;16.40;52.90;;;;;;5074987;28;20041;-78
2022/04/19 12:14:28;;;;;;;9.52;4.03;;;16.60;53.40;;;;;;5075322;28;20510;-78
2022/04/19 12:16:58;;;;;;;8.40;4.60;;;17.00;52.20;;;;;;5075414;28;20044;-77
2022/04/19 12:19:36;;;;;;;11.50;5.63;;;17.00;52.50;;;;;;5075879;28;20052;-80
2022/04/19 12:22:14;;;;;;;5.35;3.53;;;17.00;52.00;;;;;;5076176;28;20043;-79
2022/04/19 12:24:46;;;;;;;8.85;5.15;;;17.00;51.40;;;;;;5075535;28;20045;-79
2022/04/19 12:27:14;;;;;;;6.93;4.38;;;17.20;51.60;;;;;;5056712;28;20048;-78
2022/04/19 12:29:59;;;;;;;7.20;3.95;;;17.20;51.50;;;;;;5074962;28;20162;-79
2022/04/19 12:32:27;;;;;;;9.95;3.78;;;17.50;51.60;;;;;;5059766;28;20048;-77
2022/04/19 12:35:11;;;;;;;7.72;4.60;;;17.60;51.10;;;;;;5075854;28;20054;-79
2022/04/19 12:37:39;;;;;;;8.45;4.00;;;17.20;51.40;;;;;;5083893;28;20072;-81
2022/04/19 12:40:07;;;;;;;7.00;4.50;;;17.20;51.60;;;;;;5079083;28;20135;-76
2022/04/19 12:42:50;;;;;;;6.95;3.90;;;17.10;51.50;;;;;;5074915;28;20120;-78
2022/04/19 12:45:18;;;;;;;11.70;3.95;;;17.00;51.50;;;;;;5075916;28;20406;-77
2022/04/19 12:47:47;;;;;;;6.35;3.78;;;16.90;51.30;;;;;;5075656;28;20053;-78
2022/04/19 12:50:18;;;;;;;8.55;3.75;;;16.70;51.80;;;;;;5075494;28;20051;-78
2022/04/19 12:52:45;;;;;;;6.28;3.40;;;16.60;52.60;;;;;;5054897;28;20053;-78
2022/04/19 12:55:13;;;;;;;9.00;3.63;;;16.30;52.60;;;;;;5036990;28;20061;-78
2022/04/19 13:00:25;;;;;;;13.50;5.82;;;16.40;53.20;;;;;;5038856;28;20083;-77
2022/04/19 13:02:53;;;;;;;9.50;5.50;;;16.40;53.80;;;;;;5055122;28;20526;-77
2022/04/19 13:12:16;;;;;;;9.13;5.22;;;16.70;53.50;;;;;;5066535;28;20052;-80
2022/04/19 13:13:39;;;;;;;7.45;3.70;;;16.20;54.40;;;;;;5056119;28;20044;-76
2022/04/19 13:16:07;;;;;;;7.28;4.38;;;16.20;54.90;;;;;;5074517;28;20554;-78
2022/04/19 13:18:34;;;;;;;7.53;3.50;;;16.30;55.00;;;;;;5073547;28;20080;-78
2022/04/19 13:21:05;;;;;;;8.57;3.83;;;16.20;55.30;;;;;;5073681;28;20039;-78
2022/04/19 13:23:32;;;;;;;9.40;3.75;;;16.00;55.60;;;;;;5055350;28;20090;-76
2022/04/19 13:26:00;;;;;;;11.30;5.35;;;16.10;55.80;;;;;;5057661;28;20071;-77
2022/04/19 13:28:27;;;;;;;11.85;3.75;;;16.10;55.90;;;;;;5056606;28;20128;-76
2022/04/19 13:30:55;;;;;;;12.55;6.40;;;16.20;56.40;;;;;;5074881;28;20055;-77
2022/04/19 13:33:22;;;;;;;11.00;7.72;;;16.40;56.50;;;;;;5073895;28;20075;-78
2022/04/19 13:35:50;;;;;;;13.85;8.50;;;16.60;56.00;;;;;;5073393;28;20127;-78
2022/04/19 13:38:25;;;;;;;9.77;5.85;;;17.00;56.00;;;;;;5074085;28;20420;-78
2022/04/19 13:40:52;;;;;;;7.55;4.38;;;17.00;55.50;;;;;;5073282;28;20048;-78
2022/04/19 13:43:21;;;;;;;11.25;5.30;;;17.20;55.30;;;;;;5072887;28;20046;-77
2022/04/19 13:45:49;;;;;;;9.98;5.00;;;17.20;55.60;;;;;;5065394;28;20047;-77